Time;durP1;ratioP1;P1;durP2;ratioP2;P2;SDS_P1;SDS_P2;PMS_P1;PMS_P2;Temp;Humidity;BMP_temperature;BMP_pressure;BME280_temperature;BME280_humidity;BME280_pressure;Samples;Min_cycle;Max_cycle;Signal;HPM_P1;HPM_P2
2022/07/07 00:01:26;;;;;;;2.22;1.22;;;;;;;15.27;72.01;100913.89;1757959;80;25739;-83
2022/07/07 00:03:53;;;;;;;6.50;1.40;;;;;;;15.26;72.10;100913.59;1756402;81;26347;-84
2022/07/07 00:06:20;;;;;;;2.80;1.15;;;;;;;15.25;72.03;100918.16;1758772;81;26035;-84
2022/07/07 00:08:47;;;;;;;2.02;1.40;;;;;;;15.24;72.18;100914.33;1758853;81;27411;-85
2022/07/07 00:11:16;;;;;;;4.20;1.30;;;;;;;15.21;72.19;100917.44;1756008;80;26317;-83
2022/07/07 00:13:42;;;;;;;3.00;1.05;;;;;;;15.22;72.36;100914.55;1757601;81;25758;-85
2022/07/07 00:16:09;;;;;;;2.50;1.70;;;;;;;15.25;72.68;100916.81;1756752;81;26020;-84
2022/07/07 00:18:36;;;;;;;3.70;1.32;;;;;;;15.26;72.92;100914.44;1758391;81;25822;-84
2022/07/07 00:21:02;;;;;;;2.20;1.22;;;;;;;15.26;73.22;100913.09;1757566;80;27714;-84
2022/07/07 00:23:28;;;;;;;2.12;1.35;;;;;;;15.25;73.20;100914.11;1757913;81;25869;-85
2022/07/07 00:25:55;;;;;;;3.10;1.65;;;;;;;15.24;72.99;100911.63;1754477;81;25814;-84
2022/07/07 00:28:22;;;;;;;3.95;1.70;;;;;;;15.23;73.02;100908.09;1759049;81;25942;-84
2022/07/07 00:30:49;;;;;;;4.67;2.00;;;;;;;15.23;73.24;100909.95;1755586;80;26057;-84
2022/07/07 00:33:15;;;;;;;3.10;1.72;;;;;;;15.20;73.63;100907.70;1757234;81;27448;-86
2022/07/07 00:35:42;;;;;;;2.45;1.62;;;;;;;15.19;73.58;100911.42;1757634;81;25792;-84
2022/07/07 00:38:09;;;;;;;3.60;1.70;;;;;;;15.18;73.80;100903.83;1758388;81;25782;-83
2022/07/07 00:40:36;;;;;;;1.92;1.50;;;;;;;15.17;73.90;100903.54;1759394;80;25903;-86
2022/07/07 00:43:03;;;;;;;3.60;2.33;;;;;;;15.19;74.00;100903.32;1732860;81;25989;-83
2022/07/07 00:45:29;;;;;;;5.00;2.00;;;;;;;15.18;74.27;100898.44;1734318;82;27451;-83
2022/07/07 00:47:55;;;;;;;3.42;2.00;;;;;;;15.17;74.47;100898.14;1734394;82;25920;-84
2022/07/07 00:50:22;;;;;;;4.10;2.80;;;;;;;15.16;74.57;100892.97;1733431;82;25867;-83
2022/07/07 00:52:49;;;;;;;4.80;2.33;;;;;;;15.14;74.81;100899.90;1733545;82;25792;-84
2022/07/07 00:55:15;;;;;;;6.67;2.30;;;;;;;15.13;74.93;100896.91;1733985;82;25804;-84
2022/07/07 00:57:44;;;;;;;4.78;2.20;;;;;;;15.12;75.00;100896.58;1733260;82;26670;-84
2022/07/07 01:00:14;;;;;;;3.95;2.00;;;;;;;15.10;75.08;100899.17;1733509;81;25792;-85
2022/07/07 01:02:42;;;;;;;2.90;2.03;;;;;;;15.07;75.28;100903.66;1733740;82;25735;-83
2022/07/07 01:05:09;;;;;;;5.95;1.98;;;;;;;15.04;75.46;100902.20;1733700;82;25827;-84
2022/07/07 01:07:37;;;;;;;3.85;1.92;;;;;;;15.01;75.58;100904.49;1730481;82;25777;-83
2022/07/07 01:10:07;;;;;;;4.97;2.15;;;;;;;14.99;75.77;100898.48;1733441;81;28432;-84
2022/07/07 01:12:36;;;;;;;5.30;2.20;;;;;;;14.96;75.87;100898.37;1733458;82;25946;-84
2022/07/07 01:15:05;;;;;;;3.52;2.20;;;;;;;14.96;75.82;100898.37;1733593;82;25786;-83
2022/07/07 01:17:32;;;;;;;3.42;1.98;;;;;;;15.00;75.94;100900.12;1735043;82;26039;-85
2022/07/07 01:19:59;;;;;;;2.58;2.17;;;;;;;15.02;76.01;100895.34;1736159;81;25767;-83
2022/07/07 01:22:31;;;;;;;3.95;2.50;;;;;;;15.03;76.05;100903.25;1727967;82;27463;-82
2022/07/07 01:24:58;;;;;;;4.35;2.40;;;;;;;15.04;76.11;100903.55;1732383;81;25786;-84
2022/07/07 01:27:25;;;;;;;2.50;1.70;;;;;;;15.04;76.29;100901.36;1736539;82;25830;-84
2022/07/07 01:29:54;;;;;;;3.47;1.67;;;;;;;15.04;76.50;100900.02;1727256;82;26106;-83
2022/07/07 01:32:23;;;;;;;3.15;1.82;;;;;;;15.04;76.75;100898.15;1734194;82;25966;-83
2022/07/07 01:34:51;;;;;;;3.30;1.87;;;;;;;15.04;76.91;100904.05;1735615;82;27458;-83
2022/07/07 01:37:20;;;;;;;2.33;1.67;;;;;;;15.04;77.01;100905.41;1736397;82;25847;-84
2022/07/07 01:39:49;;;;;;;2.98;1.90;;;;;;;15.04;77.08;100899.50;1736634;82;25912;-85
2022/07/07 01:42:16;;;;;;;1.87;1.70;;;;;;;15.04;77.28;100901.36;1727339;82;25836;-84
2022/07/07 01:44:44;;;;;;;2.22;1.70;;;;;;;15.01;77.37;100905.84;1736196;82;25354;-83
2022/07/07 01:47:13;;;;;;;3.02;2.12;;;;;;;14.99;77.72;100897.94;1731212;81;27466;-85
2022/07/07 01:49:40;;;;;;;7.03;2.20;;;;;;;14.96;78.03;100896.19;1732453;82;25809;-82
2022/07/07 01:52:07;;;;;;;4.40;1.70;;;;;;;14.94;78.08;100900.45;1728203;81;25891;-85
2022/07/07 01:54:36;;;;;;;2.65;1.92;;;;;;;14.94;78.20;100899.09;1735829;82;26468;-83
2022/07/07 01:57:03;;;;;;;4.33;1.70;;;;;;;14.94;78.47;100893.70;1734490;82;25921;-83
2022/07/07 01:59:30;;;;;;;4.83;1.90;;;;;;;14.95;78.61;100889.14;1725761;81;28307;-83
2022/07/07 02:01:56;;;;;;;5.55;2.25;;;;;;;14.97;78.61;100891.11;1731234;81;25883;-85
2022/07/07 02:04:23;;;;;;;7.28;2.25;;;;;;;14.97;78.68;100891.92;1728049;82;25843;-83
2022/07/07 02:06:49;;;;;;;3.30;1.67;;;;;;;14.96;78.69;100891.63;1731498;82;26366;-84
2022/07/07 02:09:15;;;;;;;3.80;2.12;;;;;;;14.98;78.77;100895.45;1722484;82;25871;-84
2022/07/07 02:11:44;;;;;;;5.33;1.80;;;;;;;14.96;78.89;100891.63;1732589;81;27560;-83
2022/07/07 02:14:10;;;;;;;4.33;2.08;;;;;;;14.96;79.01;100895.67;1735459;82;25744;-84
2022/07/07 02:16:37;;;;;;;3.60;2.10;;;;;;;14.96;79.00;100897.02;1736299;81;25880;-84
2022/07/07 02:19:06;;;;;;;3.77;2.25;;;;;;;14.97;78.99;100893.81;1736211;82;25457;-86
2022/07/07 02:21:34;;;;;;;3.83;2.00;;;;;;;14.98;79.34;100893.59;1731572;81;25859;-85
2022/07/07 02:24:01;;;;;;;2.22;1.62;;;;;;;14.97;79.32;100897.31;1735519;82;26890;-84
2022/07/07 02:26:27;;;;;;;7.70;2.00;;;;;;;14.99;79.37;100903.33;1732545;82;25878;-84
2022/07/07 02:28:54;;;;;;;7.28;2.65;;;;;;;15.00;79.31;100898.26;1730626;82;25987;-85
2022/07/07 02:31:21;;;;;;;3.67;2.22;;;;;;;14.99;79.47;100906.03;1727394;81;25906;-84
2022/07/07 02:33:47;;;;;;;9.45;2.45;;;;;;;14.98;79.50;100899.50;1729419;82;25389;-83
2022/07/07 02:36:13;;;;;;;8.13;2.50;;;;;;;14.97;79.57;100898.66;1727097;81;27463;-84
2022/07/07 02:38:40;;;;;;;7.42;3.02;;;;;;;14.98;79.49;100904.89;1728356;81;25878;-83
2022/07/07 02:41:08;;;;;;;6.08;2.45;;;;;;;14.96;79.68;100899.72;1723706;82;26445;-83
2022/07/07 02:43:34;;;;;;;7.85;2.67;;;;;;;14.96;79.78;100898.88;1736385;81;25844;-84
2022/07/07 02:46:01;;;;;;;4.58;2.67;;;;;;;14.96;79.88;100897.02;1732906;81;26031;-84
2022/07/07 02:48:28;;;;;;;5.33;3.10;;;;;;;14.97;79.92;100900.02;1728083;82;27459;-85
2022/07/07 02:50:54;;;;;;;5.03;2.20;;;;;;;14.96;79.96;100898.88;1723185;81;25819;-84
2022/07/07 02:53:21;;;;;;;7.50;2.70;;;;;;;14.96;80.13;100895.67;1730851;82;25777;-85
2022/07/07 02:55:48;;;;;;;5.62;2.65;;;;;;;14.94;80.21;100893.70;1735979;82;25473;-84
2022/07/07 02:58:19;;;;;;;8.00;3.25;;;;;;;14.95;80.34;100893.19;1736300;82;25831;-83
2022/07/07 03:00:43;;;;;;;4.97;3.05;;;;;;;14.95;80.52;100894.54;1731797;81;27749;-84
2022/07/07 03:03:10;;;;;;;5.78;2.60;;;;;;;14.96;80.72;100902.92;1731035;81;25840;-83
2022/07/07 03:05:36;;;;;;;4.92;2.60;;;;;;;14.96;80.62;100896.19;1728721;81;26050;-83
2022/07/07 03:08:03;;;;;;;4.08;2.47;;;;;;;14.96;80.76;100895.67;1728962;81;26275;-83
2022/07/07 03:10:30;;;;;;;3.92;2.58;;;;;;;14.98;81.01;100903.03;1729198;81;25968;-85
2022/07/07 03:12:56;;;;;;;4.33;2.60;;;;;;;15.00;80.87;100904.16;1724590;81;27473;-85
2022/07/07 03:15:22;;;;;;;5.25;2.83;;;;;;;15.01;80.86;100903.14;1729933;81;26004;-84
2022/07/07 03:17:49;;;;;;;6.33;3.05;;;;;;;15.02;80.91;100896.19;1727554;81;25836;-85
2022/07/07 03:20:16;;;;;;;3.90;2.90;;;;;;;15.02;80.95;100896.70;1731222;81;25819;-85
2022/07/07 03:22:43;;;;;;;6.37;2.90;;;;;;;15.04;81.01;100902.20;1730967;81;25914;-84
2022/07/07 03:25:11;;;;;;;6.83;3.22;;;;;;;15.06;80.84;100900.12;1734396;81;28249;-85
2022/07/07 03:27:38;;;;;;;5.22;3.20;;;;;;;15.05;80.86;100904.38;1734358;82;25943;-83
2022/07/07 03:30:07;;;;;;;3.70;3.30;;;;;;;15.06;80.75;100903.33;1701341;82;25811;-83
2022/07/07 03:32:33;;;;;;;8.98;3.83;;;;;;;15.07;80.64;100900.95;1733300;82;26354;-85
2022/07/07 03:35:01;;;;;;;7.22;3.45;;;;;;;15.08;80.58;100897.20;1703409;82;25743;-83
2022/07/07 03:37:29;;;;;;;4.33;2.98;;;;;;;15.09;80.59;100890.78;1701728;84;27446;-83
2022/07/07 03:39:55;;;;;;;4.60;3.12;;;;;;;15.09;80.60;100888.92;1706774;82;25994;-84
2022/07/07 03:42:22;;;;;;;6.37;3.85;;;;;;;15.13;80.67;100890.67;1734527;82;25802;-84
2022/07/07 03:44:48;;;;;;;8.18;3.70;;;;;;;15.15;80.84;100886.73;1757113;81;25828;-84
2022/07/07 03:47:14;;;;;;;11.05;5.30;;;;;;;15.18;80.87;100889.54;1757676;81;25752;-84
2022/07/07 03:49:41;;;;;;;8.65;4.20;;;;;;;15.18;80.86;100890.88;1758865;80;28264;-85
2022/07/07 03:52:08;;;;;;;6.92;3.45;;;;;;;15.20;81.04;100890.16;1762991;79;26694;-85
2022/07/07 03:54:34;;;;;;;4.25;3.42;;;;;;;15.19;81.04;100891.18;1756596;80;25823;-85
2022/07/07 03:57:00;;;;;;;6.35;3.40;;;;;;;15.20;81.23;100896.39;1758496;80;25860;-84
2022/07/07 03:59:27;;;;;;;4.90;3.55;;;;;;;15.23;81.37;100893.77;1759691;79;25725;-84
2022/07/07 04:01:53;;;;;;;4.58;3.67;;;;;;;15.26;81.33;100892.84;1759706;80;27530;-84
2022/07/07 04:04:19;;;;;;;6.47;3.60;;;;;;;15.28;81.28;100890.77;1757207;81;25925;-83
2022/07/07 04:06:45;;;;;;;5.08;2.70;;;;;;;15.29;81.08;100895.11;1757859;81;25338;-85
2022/07/07 04:09:12;;;;;;;4.97;3.55;;;;;;;15.30;81.16;100888.69;1757997;81;25723;-84
2022/07/07 04:11:38;;;;;;;4.83;3.10;;;;;;;15.33;81.13;100886.89;1756950;79;25839;-84
2022/07/07 04:14:05;;;;;;;4.12;3.30;;;;;;;15.37;81.20;100896.26;1757738;81;27449;-85
2022/07/07 04:16:33;;;;;;;5.05;3.20;;;;;;;15.40;81.31;100890.42;1756239;81;25814;-84
2022/07/07 04:18:59;;;;;;;6.97;3.12;;;;;;;15.44;81.36;100888.98;1757179;81;25414;-84
2022/07/07 04:21:25;;;;;;;8.45;3.30;;;;;;;15.46;81.47;100892.01;1756126;80;26504;-84
2022/07/07 04:23:51;;;;;;;5.25;3.00;;;;;;;15.46;81.39;100892.01;1757902;81;26377;-85
2022/07/07 04:26:18;;;;;;;5.08;3.42;;;;;;;15.49;81.40;100901.02;1757425;81;27431;-85
2022/07/07 04:28:44;;;;;;;5.10;3.02;;;;;;;15.52;81.54;100891.16;1757403;81;26346;-84
2022/07/07 04:31:10;;;;;;;8.30;3.70;;;;;;;15.50;81.33;100895.43;1756640;80;26480;-85
2022/07/07 04:33:37;;;;;;;5.50;3.52;;;;;;;15.49;81.51;100892.92;1757795;81;25460;-83
2022/07/07 04:36:03;;;;;;;5.35;3.40;;;;;;;15.49;81.45;100888.87;1757161;81;25810;-84
2022/07/07 04:38:30;;;;;;;5.25;3.37;;;;;;;15.49;81.56;100888.87;1757903;81;28281;-84
2022/07/07 04:40:56;;;;;;;6.15;3.05;;;;;;;15.50;81.47;100884.63;1756676;80;26278;-85
2022/07/07 04:43:22;;;;;;;4.55;3.00;;;;;;;15.53;81.73;100885.54;1758083;81;26496;-84
2022/07/07 04:45:48;;;;;;;8.28;3.95;;;;;;;15.53;81.35;100882.84;1757390;81;26266;-84
2022/07/07 04:48:15;;;;;;;5.47;3.80;;;;;;;15.54;81.56;100882.33;1757384;81;25904;-84
2022/07/07 04:50:41;;;;;;;7.90;3.10;;;;;;;15.58;81.85;100876.29;1758627;80;27427;-85
2022/07/07 04:53:07;;;;;;;5.90;3.20;;;;;;;15.64;81.75;100876.78;1757261;81;25925;-85
2022/07/07 04:55:34;;;;;;;4.28;3.40;;;;;;;15.66;81.46;100875.22;1758007;81;26054;-84
2022/07/07 04:58:00;;;;;;;5.65;3.35;;;;;;;15.70;81.52;100866.48;1751546;81;26520;-85
2022/07/07 05:00:26;;;;;;;8.93;3.58;;;;;;;15.75;81.79;100866.67;1757787;80;25841;-85
2022/07/07 05:02:53;;;;;;;3.80;3.25;;;;;;;15.80;81.67;100864.69;1756594;81;28315;-85
2022/07/07 05:05:19;;;;;;;6.20;3.90;;;;;;;15.83;81.93;100870.48;1756118;81;25792;-85
2022/07/07 05:07:45;;;;;;;3.42;3.12;;;;;;;15.87;81.68;100873.06;1756587;81;26419;-87
2022/07/07 05:10:12;;;;;;;4.67;2.95;;;;;;;15.92;81.67;100873.77;1758322;80;25740;-85
2022/07/07 05:12:38;;;;;;;8.30;3.08;;;;;;;15.97;81.55;100867.20;1757958;81;25919;-85
2022/07/07 05:15:06;;;;;;;6.08;3.10;;;;;;;16.00;81.80;100866.24;1758321;81;27441;-86
2022/07/07 05:17:32;;;;;;;4.15;3.22;;;;;;;16.04;81.68;100860.71;1757840;81;26423;-86
2022/07/07 05:19:58;;;;;;;5.12;2.62;;;;;;;16.10;81.86;100859.84;1758777;79;25623;-86
2022/07/07 05:22:25;;;;;;;4.08;2.70;;;;;;;16.15;81.84;100855.14;1756451;81;25853;-86
2022/07/07 05:24:51;;;;;;;5.35;2.65;;;;;;;16.22;81.38;100858.64;1758496;79;26425;-85
2022/07/07 05:27:17;;;;;;;7.17;3.27;;;;;;;16.23;81.13;100853.53;1758632;81;27446;-85
2022/07/07 05:29:43;;;;;;;3.12;2.75;;;;;;;16.31;81.64;100856.00;1756191;81;25283;-85
2022/07/07 05:32:10;;;;;;;3.60;2.02;;;;;;;16.39;81.68;100861.14;1759106;80;25776;-86
2022/07/07 05:34:36;;;;;;;5.78;2.65;;;;;;;16.46;81.24;100861.93;1757914;80;25891;-85
2022/07/07 05:37:02;;;;;;;4.70;2.52;;;;;;;16.52;80.83;100869.71;1757489;81;25852;-85
2022/07/07 05:39:30;;;;;;;4.00;2.30;;;;;;;16.54;80.64;100868.45;1757541;81;27560;-85
2022/07/07 05:41:57;;;;;;;5.28;2.05;;;;;;;16.62;80.69;100871.39;1757342;80;25822;-85
2022/07/07 05:44:23;;;;;;;4.25;2.37;;;;;;;16.64;80.10;100864.72;1755693;81;26174;-86
2022/07/07 05:46:49;;;;;;;2.98;2.05;;;;;;;16.71;80.15;100864.16;1757680;81;26404;-86
2022/07/07 05:49:16;;;;;;;2.85;1.90;;;;;;;16.80;80.22;100864.72;1757530;81;25775;-86
2022/07/07 05:51:43;;;;;;;3.77;1.90;;;;;;;16.88;79.78;100851.73;1757997;80;27650;-86
2022/07/07 05:54:09;;;;;;;5.25;1.87;;;;;;;16.94;79.22;100858.97;1758449;81;25900;-85
2022/07/07 05:56:35;;;;;;;6.70;2.42;;;;;;;17.02;79.01;100853.81;1759164;81;26450;-86
2022/07/07 05:59:01;;;;;;;4.12;1.57;;;;;;;17.11;78.77;100854.36;1758043;81;25967;-85
2022/07/07 06:01:28;;;;;;;2.65;1.70;;;;;;;17.22;79.14;100859.84;1754576;80;25335;-85
2022/07/07 06:03:54;;;;;;;2.47;1.40;;;;;;;17.32;78.43;100861.50;1755717;81;27468;-84
2022/07/07 06:06:20;;;;;;;4.60;1.62;;;;;;;17.38;77.62;100862.50;1758304;81;26419;-83
2022/07/07 06:08:47;;;;;;;4.42;1.85;;;;;;;17.44;77.35;100863.78;1759198;81;26183;-85
2022/07/07 06:11:13;;;;;;;2.30;1.42;;;;;;;17.52;75.83;100864.87;1756283;80;26535;-85
2022/07/07 06:13:39;;;;;;;4.45;1.25;;;;;;;17.54;75.93;100858.70;1757621;81;25365;-86
2022/07/07 06:16:08;;;;;;;3.17;1.52;;;;;;;17.64;76.44;100864.41;1756042;81;28327;-84
2022/07/07 06:18:35;;;;;;;3.77;1.40;;;;;;;17.72;76.24;100859.23;1760111;81;26033;-84
2022/07/07 06:21:01;;;;;;;2.08;1.40;;;;;;;17.82;75.66;100858.16;1758667;81;26382;-85
2022/07/07 06:23:27;;;;;;;3.67;1.30;;;;;;;17.88;74.92;100855.88;1757752;81;25838;-85
2022/07/07 06:25:54;;;;;;;2.17;1.10;;;;;;;17.97;74.37;100858.58;1755564;81;25892;-85
2022/07/07 06:28:20;;;;;;;3.95;1.32;;;;;;;18.03;73.78;100860.37;1758285;81;27459;-85
2022/07/07 06:30:46;;;;;;;2.60;1.10;;;;;;;18.04;72.67;100857.14;1757802;80;25841;-84
2022/07/07 06:33:13;;;;;;;2.98;1.10;;;;;;;18.12;73.54;100860.36;1757406;81;25751;-85
2022/07/07 06:35:40;;;;;;;3.55;1.20;;;;;;;18.23;73.41;100850.62;1756524;81;25619;-84
2022/07/07 06:38:06;;;;;;;3.25;1.10;;;;;;;18.33;73.54;100854.95;1759353;81;25840;-84
2022/07/07 06:40:32;;;;;;;1.90;0.95;;;;;;;18.43;73.20;100858.75;1760702;80;27443;-86
2022/07/07 06:42:59;;;;;;;2.65;1.07;;;;;;;18.53;72.18;100854.69;1761958;81;25752;-84
2022/07/07 06:45:29;;;;;;;3.47;1.17;;;;;;;18.57;71.65;100855.34;1762940;81;25744;-84
2022/07/07 06:47:54;;;;;;;2.37;1.00;;;;;;;18.64;70.98;100849.82;1759363;81;25671;-85
2022/07/07 06:50:21;;;;;;;1.62;1.07;;;;;;;18.66;69.92;100851.25;1759612;80;25676;-84
2022/07/07 06:52:47;;;;;;;2.65;1.07;;;;;;;18.71;69.90;100847.28;1760295;81;27415;-85
2022/07/07 06:55:13;;;;;;;3.77;0.90;;;;;;;18.73;69.48;100851.14;1759898;81;25704;-84
2022/07/07 06:57:39;;;;;;;2.87;1.10;;;;;;;18.74;68.61;100844.64;1759662;81;25724;-85
2022/07/07 07:00:10;;;;;;;5.33;0.80;;;;;;;18.80;68.37;100845.88;1760060;80;25655;-84
2022/07/07 07:02:43;;;;;;;3.00;0.75;;;;;;;18.84;66.76;100839.48;1755619;81;33025;-84
2022/07/07 07:05:09;;;;;;;3.62;0.80;;;;;;;18.83;66.82;100844.59;1757250;80;28343;-84
2022/07/07 07:07:35;;;;;;;4.22;1.10;;;;;;;18.86;66.99;100847.66;1754243;81;25754;-85
2022/07/07 07:10:02;;;;;;;2.05;1.05;;;;;;;18.90;66.78;100842.60;1757761;79;25764;-84
2022/07/07 07:12:29;;;;;;;1.50;0.75;;;;;;;18.95;66.66;100846.78;1757602;81;25972;-84
2022/07/07 07:14:55;;;;;;;2.15;1.10;;;;;;;18.93;65.83;100839.41;1756162;81;25898;-85
2022/07/07 07:17:22;;;;;;;4.00;1.10;;;;;;;18.91;65.75;100846.95;1756122;81;27536;-84
2022/07/07 07:19:48;;;;;;;4.40;1.15;;;;;;;18.98;66.41;100838.17;1756634;81;25732;-85
2022/07/07 07:22:14;;;;;;;2.65;1.17;;;;;;;19.13;66.01;100838.01;1756255;80;25783;-85
2022/07/07 07:24:41;;;;;;;2.42;0.90;;;;;;;19.28;66.63;100839.41;1758126;81;26118;-85
2022/07/07 07:27:07;;;;;;;7.15;1.05;;;;;;;19.40;64.75;100840.23;1758042;81;25742;-85
2022/07/07 07:29:33;;;;;;;3.50;1.32;;;;;;;19.50;64.72;100836.41;1758833;81;27499;-85
2022/07/07 07:32:00;;;;;;;1.90;0.90;;;;;;;19.62;64.21;100835.84;1757780;80;25935;-86
2022/07/07 07:34:26;;;;;;;3.70;0.78;;;;;;;19.71;62.74;100831.16;1758849;81;25864;-85
2022/07/07 07:36:52;;;;;;;2.45;0.75;;;;;;;19.80;61.98;100831.60;1754936;81;25848;-85
2022/07/07 07:39:19;;;;;;;0.70;0.40;;;;;;;19.83;61.24;100826.50;1756288;81;25823;-83
2022/07/07 07:41:45;;;;;;;0.82;0.60;;;;;;;19.87;61.77;100829.55;1756288;80;27438;-84
2022/07/07 07:44:11;;;;;;;1.65;0.70;;;;;;;19.93;60.78;100828.05;1757914;81;25912;-85
2022/07/07 07:46:37;;;;;;;2.75;0.75;;;;;;;19.99;60.70;100822.19;1756271;81;25328;-84
2022/07/07 07:49:06;;;;;;;2.20;0.60;;;;;;;20.03;60.63;100832.03;1756555;81;25934;-85
2022/07/07 07:51:33;;;;;;;3.02;0.60;;;;;;;20.07;60.57;100826.40;1756446;80;25812;-85
2022/07/07 07:54:00;;;;;;;1.05;0.42;;;;;;;20.10;59.01;100822.68;1757366;81;27471;-85
2022/07/07 07:56:26;;;;;;;1.92;0.47;;;;;;;20.08;57.72;100827.51;1757169;81;26125;-85
2022/07/07 07:58:52;;;;;;;4.50;0.80;;;;;;;20.03;58.01;100828.79;1757733;81;25847;-85
2022/07/07 08:01:18;;;;;;;1.52;0.62;;;;;;;20.03;57.43;100820.63;1757554;80;26215;-85
2022/07/07 08:03:45;;;;;;;4.33;1.00;;;;;;;20.03;57.18;100829.32;1757403;81;25788;-84
2022/07/07 08:06:11;;;;;;;4.05;0.70;;;;;;;20.05;56.91;100832.62;1757273;81;27467;-83
2022/07/07 08:08:37;;;;;;;2.22;0.70;;;;;;;20.02;56.03;100822.25;1757290;81;25890;-85
2022/07/07 08:11:04;;;;;;;1.70;0.70;;;;;;;20.03;57.33;100821.99;1757832;81;25998;-85
2022/07/07 08:13:31;;;;;;;2.10;0.60;;;;;;;20.12;58.18;100830.06;1757990;81;25803;-85
2022/07/07 08:15:57;;;;;;;2.10;0.50;;;;;;;20.23;57.30;100823.74;1758684;81;25872;-85
2022/07/07 08:18:26;;;;;;;3.00;0.72;;;;;;;20.27;57.83;100826.83;1756727;81;27427;-85
2022/07/07 08:20:51;;;;;;;2.08;1.02;;;;;;;20.32;57.30;100822.81;1756623;81;25965;-84
2022/07/07 08:23:18;;;;;;;2.67;0.60;;;;;;;20.40;58.50;100825.16;1758246;81;25797;-85
2022/07/07 08:25:44;;;;;;;1.82;0.60;;;;;;;20.51;57.73;100822.34;1758121;81;25862;-85
2022/07/07 08:28:10;;;;;;;4.08;0.78;;;;;;;20.60;57.53;100824.13;1758141;80;26409;-85
2022/07/07 08:30:37;;;;;;;1.90;0.60;;;;;;;20.69;56.63;100828.93;1756648;80;28354;-85
2022/07/07 08:33:06;;;;;;;1.17;0.60;;;;;;;20.71;54.82;100832.75;1757853;81;25502;-85
2022/07/07 08:35:33;;;;;;;2.25;0.40;;;;;;;20.66;55.41;100825.85;1756631;81;25933;-86
2022/07/07 08:37:59;;;;;;;1.77;0.50;;;;;;;20.71;55.18;100829.50;1752842;81;25393;-85
2022/07/07 08:40:27;;;;;;;2.60;0.53;;;;;;;20.73;54.50;100820.55;1755857;80;26522;-86
2022/07/07 08:42:54;;;;;;;3.58;0.98;;;;;;;20.74;54.75;100824.11;1755366;81;28241;-85
2022/07/07 08:45:20;;;;;;;1.67;0.60;;;;;;;20.81;55.17;100816.57;1753052;81;25897;-86
2022/07/07 08:47:47;;;;;;;2.50;0.50;;;;;;;20.94;54.21;100814.88;1756544;81;25829;-85
2022/07/07 08:50:14;;;;;;;1.05;0.40;;;;;;;20.96;53.62;100814.09;1756601;80;25826;-85
2022/07/07 08:52:40;;;;;;;6.20;0.70;;;;;;;20.96;52.84;100817.34;1757429;81;26134;-85
2022/07/07 08:55:09;;;;;;;1.52;0.60;;;;;;;21.07;54.15;100822.73;1758701;81;27459;-85
2022/07/07 08:57:36;;;;;;;1.10;0.50;;;;;;;21.21;54.13;100817.20;1758229;81;25815;-85
2022/07/07 09:00:04;;;;;;;4.17;0.85;;;;;;;21.28;54.18;100819.75;1757101;80;25999;-85
2022/07/07 09:02:30;;;;;;;1.90;0.55;;;;;;;21.27;53.68;100815.39;1756222;81;25782;-85
2022/07/07 09:04:57;;;;;;;1.98;0.60;;;;;;;21.22;53.74;100819.40;1756206;81;25799;-86
2022/07/07 09:07:24;;;;;;;2.12;0.50;;;;;;;21.21;52.86;100816.41;1757611;81;27516;-86
2022/07/07 09:09:54;;;;;;;3.80;0.53;;;;;;;21.19;53.55;100816.63;1732160;81;25821;-85
2022/07/07 09:12:20;;;;;;;3.27;0.70;;;;;;;21.26;54.50;100816.45;1757606;81;26455;-85
2022/07/07 09:14:50;;;;;;;1.35;0.40;;;;;;;21.25;53.44;100814.83;1758737;81;26224;-85
2022/07/07 09:17:30;;;;;;;1.47;0.60;;;;;;;21.17;53.82;100811.17;1758130;81;25830;-84
2022/07/07 09:20:12;;;;;;;3.30;0.60;;;;;;;21.23;54.13;100815.08;1758150;80;27547;-85
2022/07/07 09:22:56;;;;;;;2.20;0.82;;;;;;;21.42;54.41;100812.87;1758102;81;26493;-85
2022/07/07 09:25:25;;;;;;;2.08;0.75;;;;;;;21.63;53.22;100813.95;1758855;81;25863;-85
2022/07/07 09:28:04;;;;;;;2.22;0.62;;;;;;;21.70;53.37;100813.23;1757583;81;25828;-84
2022/07/07 09:30:35;;;;;;;4.25;0.60;;;;;;;21.70;52.29;100815.42;1756218;80;26421;-85
2022/07/07 09:33:06;;;;;;;4.35;0.60;;;;;;;21.62;52.14;100815.84;1757765;81;27423;-85
2022/07/07 09:38:24;;;;;;;2.72;0.57;;;;;;;21.63;52.45;100809.86;1756337;81;25930;-85
2022/07/07 09:41:03;;;;;;;2.65;0.60;;;;;;;21.63;51.46;100812.05;1758579;80;26361;-86
2022/07/07 09:43:33;;;;;;;2.50;0.53;;;;;;;21.59;51.91;100811.45;1756678;81;25758;-86
2022/07/07 09:46:25;;;;;;;2.07;0.53;;;;;;;21.55;50.93;100806.22;1758452;81;27479;-85
2022/07/07 09:48:56;;;;;;;1.62;0.50;;;;;;;21.44;51.55;100799.29;1756174;81;25764;-85
2022/07/07 09:51:27;;;;;;;1.50;0.50;;;;;;;21.51;52.56;100804.55;1730887;81;25830;-85
2022/07/07 09:54:14;;;;;;;1.67;0.53;;;;;;;21.61;52.09;100804.67;1758197;81;25807;-85
2022/07/07 09:56:47;;;;;;;1.27;0.40;;;;;;;21.77;52.64;100797.51;1759054;81;25832;-85
2022/07/07 09:59:17;;;;;;;1.45;0.37;;;;;;;22.03;52.00;100796.71;1758758;81;27467;-86
2022/07/07 10:01:46;;;;;;;2.33;0.50;;;;;;;22.23;51.43;100786.84;1758222;80;25847;-86
2022/07/07 10:04:22;;;;;;;0.98;0.30;;;;;;;22.43;51.67;100794.94;1759097;81;25974;-85
2022/07/07 10:06:49;;;;;;;1.55;0.50;;;;;;;22.54;50.52;100789.85;1760215;81;26239;-86
2022/07/07 10:09:21;;;;;;;3.20;0.60;;;;;;;22.51;49.01;100796.65;1758318;81;25937;-85
2022/07/07 10:11:53;;;;;;;0.95;0.75;;;;;;;22.40;48.03;100793.55;1756055;80;28376;-85
2022/07/07 10:14:31;;;;;;;0.70;0.40;;;;;;;22.29;47.62;100794.53;1757798;81;25290;-85
2022/07/07 10:16:57;;;;;;;1.67;0.60;;;;;;;22.21;48.79;100793.64;1732054;82;25803;-85
2022/07/07 10:19:26;;;;;;;4.55;1.52;;;;;;;22.18;48.97;100788.69;1734281;82;26232;-85
2022/07/07 10:21:55;;;;;;;0.50;0.20;;;;;;;22.15;48.93;100783.77;1733928;82;25876;-86
2022/07/07 10:24:27;;;;;;;1.10;0.40;;;;;;;22.07;49.07;100788.30;1734897;82;27466;-85
2022/07/07 10:27:00;;;;;;;0.70;0.40;;;;;;;22.05;48.50;100783.64;1754629;81;26038;-85
2022/07/07 10:29:45;;;;;;;4.30;0.50;;;;;;;22.03;48.20;100783.91;1758427;81;25898;-85
2022/07/07 10:32:16;;;;;;;1.35;0.50;;;;;;;22.02;48.37;100791.82;1753293;81;26209;-85
2022/07/07 10:34:52;;;;;;;2.62;0.68;;;;;;;21.92;47.45;100793.05;1755879;81;25913;-85
2022/07/07 10:37:21;;;;;;;2.80;0.70;;;;;;;21.91;46.43;100791.95;1755135;81;27461;-85
2022/07/07 10:39:53;;;;;;;2.92;0.62;;;;;;;21.87;47.74;100797.11;1757424;81;25875;-86
2022/07/07 10:42:43;;;;;;;3.22;0.40;;;;;;;21.91;46.93;100791.95;1755398;81;26472;-85
2022/07/07 10:45:10;;;;;;;2.57;0.73;;;;;;;21.91;47.47;100787.87;1756922;81;25553;-86
2022/07/07 10:47:37;;;;;;;0.95;0.50;;;;;;;21.90;48.13;100795.75;1736569;81;25820;-85
2022/07/07 10:50:27;;;;;;;0.93;0.47;;;;;;;21.95;47.77;100793.09;1757476;80;27459;-85
2022/07/07 10:52:54;;;;;;;2.40;0.50;;;;;;;21.97;47.13;100792.29;1757893;81;25814;-86
2022/07/07 10:55:20;;;;;;;1.02;0.50;;;;;;;21.99;48.50;100784.14;1758295;81;25754;-86
2022/07/07 10:57:48;;;;;;;2.35;0.70;;;;;;;22.08;47.24;100777.68;1757581;81;25845;-85
2022/07/07 11:00:27;;;;;;;1.37;0.50;;;;;;;22.06;47.41;100782.04;1704666;82;25950;-85
2022/07/07 11:03:13;;;;;;;0.90;0.60;;;;;;;22.06;47.77;100786.13;1733398;81;27436;-85
2022/07/07 11:05:45;;;;;;;1.82;0.50;;;;;;;22.04;46.84;100784.20;1733756;82;25807;-84
2022/07/07 11:08:14;;;;;;;0.98;0.60;;;;;;;21.97;47.01;100784.11;1734239;82;25957;-85
2022/07/07 11:10:50;;;;;;;1.47;0.80;;;;;;;21.96;46.84;100781.11;1742739;81;25334;-85
2022/07/07 11:13:33;;;;;;;1.35;0.75;;;;;;;21.99;46.98;100779.22;1732454;82;26022;-85
2022/07/07 11:16:21;;;;;;;1.87;0.50;;;;;;;22.02;45.29;100779.55;1733635;81;28659;-85
2022/07/07 11:18:55;;;;;;;3.65;0.65;;;;;;;22.10;47.74;100778.24;1732989;82;26410;-85
2022/07/07 11:21:41;;;;;;;4.85;0.60;;;;;;;22.22;47.87;100784.35;1732490;82;26169;-84
2022/07/07 11:24:17;;;;;;;2.10;1.12;;;;;;;22.22;46.74;100781.09;1703151;83;26316;-85
2022/07/07 11:26:57;;;;;;;1.57;0.60;;;;;;;22.22;47.19;100779.73;1734768;82;26988;-85
2022/07/07 11:29:24;;;;;;;2.35;1.27;;;;;;;22.27;46.52;100781.69;1700122;84;28372;-86
2022/07/07 11:32:04;;;;;;;1.90;1.20;;;;;;;22.29;46.88;100782.25;1733623;82;26122;-85